Time;durP1;ratioP1;P1;durP2;ratioP2;P2;SDS_P1;SDS_P2;PMS_P1;PMS_P2;Temp;Humidity;BMP_temperature;BMP_pressure;BME280_temperature;BME280_humidity;BME280_pressure;Samples;Min_cycle;Max_cycle;Signal;HPM_P1;HPM_P2
2022/05/29 00:00:27;;;;;;;1.60;0.90;;;19.40;99.90;;;;;;1042698;28;20094;-68
2022/05/29 00:00:57;;;;;;;3.17;1.30;;;19.40;99.90;;;;;;1042652;28;20017;-68
2022/05/29 00:01:28;;;;;;;2.53;1.10;;;19.40;99.90;;;;;;1042589;28;20502;-68
2022/05/29 00:01:58;;;;;;;2.73;0.90;;;19.40;99.90;;;;;;1039595;28;20636;-68
2022/05/29 00:02:29;;;;;;;3.53;1.17;;;19.40;99.90;;;;;;1038605;28;20428;-68
2022/05/29 00:02:59;;;;;;;2.30;1.03;;;19.40;99.90;;;;;;1039925;28;20021;-68
2022/05/29 00:03:30;;;;;;;2.27;1.10;;;19.40;99.90;;;;;;1042967;28;20028;-68
2022/05/29 00:04:00;;;;;;;2.77;1.10;;;19.40;99.90;;;;;;1043011;28;20064;-68
2022/05/29 00:04:31;;;;;;;1.97;1.20;;;19.40;99.90;;;;;;1043000;28;20017;-68
2022/05/29 00:05:02;;;;;;;3.03;1.00;;;19.40;99.90;;;;;;1042762;28;20041;-68
2022/05/29 00:05:36;;;;;;;2.10;1.13;;;19.40;99.90;;;;;;1043074;28;20013;-68
2022/05/29 00:06:08;;;;;;;1.42;0.85;;;19.40;99.90;;;;;;1042822;28;20256;-68
2022/05/29 00:06:42;;;;;;;2.78;1.10;;;19.40;99.90;;;;;;1042821;28;20155;-68
2022/05/29 00:07:15;;;;;;;1.80;0.82;;;19.40;99.90;;;;;;1039029;28;20449;-68
2022/05/29 00:07:49;;;;;;;2.05;1.13;;;19.50;99.90;;;;;;1038726;28;20020;-68
2022/05/29 00:08:27;;;;;;;1.67;0.90;;;19.50;99.90;;;;;;1041861;28;20017;-68
2022/05/29 00:08:57;;;;;;;1.98;1.02;;;19.50;99.90;;;;;;1043049;28;20316;-68
2022/05/29 00:09:35;;;;;;;3.00;1.00;;;19.50;99.90;;;;;;1043178;28;20059;-68
2022/05/29 00:10:10;;;;;;;5.22;1.30;;;19.50;99.90;;;;;;1042601;28;20029;-68
2022/05/29 00:10:42;;;;;;;2.15;1.00;;;19.50;99.90;;;;;;1043151;28;20028;-68
2022/05/29 00:11:14;;;;;;;2.75;1.33;;;19.50;99.90;;;;;;1042992;28;20617;-68
2022/05/29 00:11:46;;;;;;;3.00;1.20;;;19.50;99.90;;;;;;1042963;28;20016;-68
2022/05/29 00:12:18;;;;;;;3.13;1.10;;;19.50;99.90;;;;;;1042967;28;20078;-68
2022/05/29 00:12:48;;;;;;;1.92;1.40;;;19.50;99.90;;;;;;1043210;28;20013;-68
2022/05/29 00:13:20;;;;;;;1.97;1.00;;;19.50;99.90;;;;;;1042251;28;20017;-68
2022/05/29 00:13:50;;;;;;;2.63;1.20;;;19.40;99.90;;;;;;1042787;28;20025;-68
2022/05/29 00:14:21;;;;;;;3.07;1.13;;;19.40;99.90;;;;;;1038235;28;20022;-68
2022/05/29 00:14:51;;;;;;;1.37;0.80;;;19.40;99.90;;;;;;1034635;28;20234;-68
2022/05/29 00:15:22;;;;;;;2.17;1.20;;;19.40;99.90;;;;;;1038277;28;20260;-68
2022/05/29 00:15:53;;;;;;;1.83;1.00;;;19.40;99.90;;;;;;1038692;28;20021;-68
2022/05/29 00:16:24;;;;;;;5.20;1.63;;;19.40;99.90;;;;;;1042301;28;20017;-68
2022/05/29 00:16:55;;;;;;;3.60;1.33;;;19.40;99.90;;;;;;1039223;28;20109;-68
2022/05/29 00:17:25;;;;;;;1.97;0.90;;;19.30;99.90;;;;;;1042535;28;20025;-68
2022/05/29 00:17:56;;;;;;;2.83;1.10;;;19.30;99.90;;;;;;1043133;28;20017;-68
2022/05/29 00:18:26;;;;;;;2.63;1.43;;;19.30;99.90;;;;;;1042946;28;20025;-68
2022/05/29 00:18:57;;;;;;;2.47;1.30;;;19.30;99.90;;;;;;1043064;28;20096;-68
2022/05/29 00:19:27;;;;;;;2.27;1.10;;;19.30;99.90;;;;;;1042574;28;20033;-68
2022/05/29 00:19:58;;;;;;;4.07;1.00;;;19.30;99.90;;;;;;1042617;28;20053;-68
2022/05/29 00:20:29;;;;;;;2.87;1.40;;;19.30;99.90;;;;;;1042580;28;20100;-68
2022/05/29 00:21:00;;;;;;;2.73;1.10;;;19.30;99.90;;;;;;1042772;28;20082;-68
2022/05/29 00:21:35;;;;;;;2.75;1.20;;;19.30;99.90;;;;;;1043000;28;20312;-68
2022/05/29 00:22:07;;;;;;;1.95;0.90;;;19.20;99.90;;;;;;1042843;28;20033;-68
2022/05/29 00:22:38;;;;;;;2.40;1.05;;;19.30;99.90;;;;;;1043092;28;20553;-68
2022/05/29 00:23:09;;;;;;;2.20;0.90;;;19.30;99.90;;;;;;1043180;28;20028;-68
2022/05/29 00:23:42;;;;;;;3.07;1.37;;;19.30;99.90;;;;;;1042855;28;20018;-68
2022/05/29 00:24:14;;;;;;;3.47;1.08;;;19.30;99.90;;;;;;1042949;28;20025;-68
2022/05/29 00:24:46;;;;;;;2.97;1.10;;;19.30;99.90;;;;;;1042902;28;20076;-68
2022/05/29 00:25:18;;;;;;;3.75;1.10;;;19.30;99.90;;;;;;1043181;28;20021;-68
2022/05/29 00:25:51;;;;;;;4.00;1.05;;;19.20;99.90;;;;;;1041984;28;20075;-68
2022/05/29 00:26:22;;;;;;;2.20;0.95;;;19.20;99.90;;;;;;1042893;28;20025;-68
2022/05/29 00:26:53;;;;;;;2.57;1.43;;;19.20;99.90;;;;;;1042455;28;20044;-68
2022/05/29 00:27:24;;;;;;;2.90;1.27;;;19.20;99.90;;;;;;1042688;28;20488;-68
2022/05/29 00:27:54;;;;;;;3.57;1.00;;;19.20;99.90;;;;;;1042898;28;20508;-68
2022/05/29 00:28:25;;;;;;;2.77;1.03;;;19.20;99.90;;;;;;1042562;28;20020;-68
2022/05/29 00:28:55;;;;;;;1.50;1.00;;;19.20;99.90;;;;;;1038365;28;20175;-68
2022/05/29 00:29:26;;;;;;;2.30;1.00;;;19.20;99.90;;;;;;1038374;28;20024;-68
2022/05/29 00:29:56;;;;;;;3.90;1.50;;;19.20;99.90;;;;;;1038478;28;20127;-68
2022/05/29 00:30:27;;;;;;;2.37;1.10;;;19.20;99.90;;;;;;1042594;28;20029;-68
2022/05/29 00:30:57;;;;;;;2.13;1.10;;;19.20;99.90;;;;;;1042845;28;20032;-68
2022/05/29 00:31:28;;;;;;;2.27;0.90;;;19.20;99.90;;;;;;1039598;28;20029;-68
2022/05/29 00:31:59;;;;;;;2.60;1.07;;;19.20;99.90;;;;;;1042919;28;20016;-68
2022/05/29 00:32:30;;;;;;;2.95;1.45;;;19.20;99.90;;;;;;1041366;28;20411;-68
2022/05/29 00:33:00;;;;;;;5.33;1.50;;;19.20;99.90;;;;;;1038936;28;20385;-68
2022/05/29 00:33:31;;;;;;;1.40;0.87;;;19.10;99.90;;;;;;1038421;28;20148;-68
2022/05/29 00:34:02;;;;;;;2.50;1.10;;;19.10;99.90;;;;;;1038304;28;20026;-68
2022/05/29 00:34:33;;;;;;;3.38;1.55;;;19.10;99.90;;;;;;1039414;28;20037;-68
2022/05/29 00:35:03;;;;;;;3.20;1.23;;;19.10;99.90;;;;;;1040102;28;20022;-68
2022/05/29 00:35:37;;;;;;;3.00;1.07;;;19.10;99.90;;;;;;1040172;28;20547;-67
2022/05/29 00:36:11;;;;;;;2.60;1.13;;;19.10;99.90;;;;;;1042218;28;20480;-68
2022/05/29 00:36:44;;;;;;;1.63;0.80;;;19.10;99.90;;;;;;1040679;28;20006;-68
2022/05/29 00:37:14;;;;;;;2.95;1.05;;;19.10;99.90;;;;;;1040218;28;20079;-68
2022/05/29 00:37:47;;;;;;;1.83;1.10;;;19.10;99.90;;;;;;1040107;28;20017;-68
2022/05/29 00:38:18;;;;;;;2.67;1.05;;;19.10;99.90;;;;;;1042329;28;20381;-68
2022/05/29 00:38:50;;;;;;;1.20;0.93;;;19.20;99.90;;;;;;1044166;28;20547;-67
2022/05/29 00:39:20;;;;;;;2.72;1.48;;;19.20;99.90;;;;;;1043714;28;20017;-68
2022/05/29 00:39:53;;;;;;;2.53;1.20;;;19.10;99.90;;;;;;1043752;28;20115;-67
2022/05/29 00:40:54;;;;;;;2.00;1.20;;;19.10;99.90;;;;;;1043760;28;20013;-67
2022/05/29 00:41:34;;;;;;;2.80;1.58;;;19.10;99.90;;;;;;1040309;28;20014;-67
2022/05/29 00:42:06;;;;;;;2.65;1.25;;;19.10;99.90;;;;;;1040248;28;20169;-67
2022/05/29 00:42:37;;;;;;;3.88;1.13;;;19.10;99.90;;;;;;1042966;28;20048;-67
2022/05/29 00:43:08;;;;;;;1.57;0.80;;;19.10;99.90;;;;;;1044540;28;20023;-67
2022/05/29 00:43:38;;;;;;;2.67;0.93;;;19.10;99.90;;;;;;1044227;28;20417;-67
2022/05/29 00:44:13;;;;;;;1.50;1.20;;;19.10;99.90;;;;;;1042967;28;20115;-67
2022/05/29 00:44:44;;;;;;;2.53;1.17;;;19.10;99.90;;;;;;1035495;28;20733;-67
2022/05/29 00:45:19;;;;;;;4.03;1.23;;;19.10;99.90;;;;;;1036027;28;20060;-67
2022/05/29 00:45:55;;;;;;;2.15;0.88;;;19.10;99.90;;;;;;1038152;28;20014;-67
2022/05/29 00:46:30;;;;;;;2.90;1.10;;;19.20;99.90;;;;;;1042412;28;20025;-67
2022/05/29 00:47:10;;;;;;;2.15;1.00;;;19.20;99.90;;;;;;1040031;28;20052;-67
2022/05/29 00:47:41;;;;;;;2.63;1.23;;;19.20;99.90;;;;;;1042416;28;20024;-67
2022/05/29 00:48:17;;;;;;;1.33;1.17;;;19.20;99.90;;;;;;1044017;28;20021;-68
2022/05/29 00:48:47;;;;;;;2.60;1.20;;;19.20;99.90;;;;;;1043799;28;20599;-67
2022/05/29 00:49:25;;;;;;;4.47;1.30;;;19.20;99.90;;;;;;1042089;28;20349;-67
2022/05/29 00:49:55;;;;;;;2.75;1.10;;;19.20;99.90;;;;;;1039837;28;20013;-67
2022/05/29 00:50:26;;;;;;;3.17;0.97;;;19.20;99.90;;;;;;1039968;28;20021;-67
2022/05/29 00:51:01;;;;;;;3.33;1.10;;;19.20;99.90;;;;;;1040786;28;20045;-67
2022/05/29 00:51:35;;;;;;;2.70;1.00;;;19.20;99.90;;;;;;1044147;28;20880;-67
2022/05/29 00:52:11;;;;;;;2.33;1.08;;;19.20;99.90;;;;;;1043724;28;20017;-67
2022/05/29 00:52:41;;;;;;;2.78;1.00;;;19.20;99.90;;;;;;1044124;28;20017;-67
2022/05/29 00:53:14;;;;;;;3.23;1.37;;;19.20;99.90;;;;;;1044033;28;20094;-67
2022/05/29 00:53:44;;;;;;;3.95;1.40;;;19.20;99.90;;;;;;1044436;28;20017;-67
2022/05/29 00:54:16;;;;;;;3.53;1.33;;;19.20;99.90;;;;;;1044052;28;20112;-67
2022/05/29 00:54:56;;;;;;;3.45;1.40;;;19.10;99.90;;;;;;1044396;28;20556;-67
2022/05/29 00:55:30;;;;;;;2.47;1.20;;;19.10;99.90;;;;;;1044294;28;20460;-67
2022/05/29 00:56:10;;;;;;;1.85;1.00;;;19.10;99.90;;;;;;1044083;28;20059;-67
2022/05/29 00:56:42;;;;;;;2.30;1.17;;;19.10;99.90;;;;;;1044308;28;20055;-67
2022/05/29 00:57:16;;;;;;;2.88;1.13;;;19.10;99.90;;;;;;1044476;28;20172;-67
2022/05/29 00:57:54;;;;;;;3.17;1.20;;;19.10;99.90;;;;;;1044116;28;20024;-67
2022/05/29 00:58:25;;;;;;;3.47;1.00;;;19.10;99.90;;;;;;1044308;28;20075;-67
2022/05/29 00:58:58;;;;;;;3.55;1.33;;;19.10;99.90;;;;;;1044407;28;20027;-67
2022/05/29 00:59:32;;;;;;;1.55;0.88;;;19.10;99.90;;;;;;1044137;28;20013;-67
2022/05/29 01:00:09;;;;;;;2.10;1.02;;;19.10;99.90;;;;;;1044503;28;20107;-67
2022/05/29 01:00:40;;;;;;;2.45;1.10;;;19.10;99.90;;;;;;1044212;28;20025;-67
2022/05/29 01:01:11;;;;;;;2.27;1.17;;;19.10;99.90;;;;;;1044361;28;20021;-67
2022/05/29 01:01:42;;;;;;;5.05;1.20;;;19.10;99.90;;;;;;1042020;28;20556;-68
2022/05/29 01:02:12;;;;;;;3.00;1.20;;;19.10;99.90;;;;;;1040430;28;20013;-67
2022/05/29 01:02:45;;;;;;;2.03;1.17;;;19.10;99.90;;;;;;1040023;28;20025;-68
2022/05/29 01:03:16;;;;;;;2.15;1.20;;;19.10;99.90;;;;;;1039888;28;20485;-67
2022/05/29 01:03:47;;;;;;;2.10;1.10;;;19.10;99.90;;;;;;1039621;28;20523;-67
2022/05/29 01:04:17;;;;;;;2.47;1.10;;;19.10;99.90;;;;;;1039951;28;20332;-67
2022/05/29 01:04:48;;;;;;;2.57;1.10;;;19.10;99.90;;;;;;1042688;28;20025;-67
2022/05/29 01:05:20;;;;;;;1.07;0.80;;;19.10;99.90;;;;;;1044306;28;20124;-67
2022/05/29 01:05:51;;;;;;;1.65;1.10;;;19.10;99.90;;;;;;1044121;28;20067;-67
2022/05/29 01:06:22;;;;;;;1.50;0.80;;;19.10;99.90;;;;;;1042317;28;20055;-68
2022/05/29 01:06:54;;;;;;;1.90;0.88;;;19.10;99.90;;;;;;1039698;28;20424;-68
2022/05/29 01:07:28;;;;;;;2.83;0.88;;;19.10;99.90;;;;;;1040026;28;20124;-67
2022/05/29 01:08:14;;;;;;;2.75;1.08;;;19.10;99.90;;;;;;1032707;28;20018;-68
2022/05/29 01:08:45;;;;;;;4.47;1.23;;;19.10;99.90;;;;;;1039621;28;20033;-67
2022/05/29 01:09:16;;;;;;;2.17;1.10;;;19.10;99.90;;;;;;1039962;28;20037;-67
2022/05/29 01:09:48;;;;;;;2.75;1.00;;;19.10;99.90;;;;;;1042082;28;20025;-67
2022/05/29 01:10:19;;;;;;;2.55;0.90;;;19.10;99.90;;;;;;1044313;28;20013;-67
2022/05/29 01:10:50;;;;;;;1.08;0.85;;;19.10;99.90;;;;;;1044352;28;20017;-67
2022/05/29 01:11:28;;;;;;;2.93;1.33;;;19.10;99.90;;;;;;1044219;28;20357;-67
2022/05/29 01:12:27;;;;;;;2.03;0.85;;;19.10;99.90;;;;;;1044299;28;20012;-67
2022/05/29 01:13:16;;;;;;;1.75;0.82;;;19.10;99.90;;;;;;1042837;28;20087;-68
2022/05/29 01:14:02;;;;;;;1.15;0.85;;;19.10;99.90;;;;;;1040305;28;20350;-67
2022/05/29 01:14:56;;;;;;;2.88;1.20;;;19.10;99.90;;;;;;1040214;28;20484;-67
2022/05/29 01:15:37;;;;;;;1.90;1.02;;;19.10;99.90;;;;;;1040212;28;20005;-67
2022/05/29 01:16:47;;;;;;;2.35;0.93;;;19.10;99.90;;;;;;1040193;28;20020;-67
2022/05/29 01:17:29;;;;;;;3.88;1.25;;;19.10;99.90;;;;;;1035576;28;20446;-67
2022/05/29 01:18:23;;;;;;;2.50;1.38;;;19.10;99.90;;;;;;1035642;28;20018;-67
2022/05/29 01:19:09;;;;;;;1.63;1.00;;;19.10;99.90;;;;;;1035682;28;20038;-67
2022/05/29 01:20:00;;;;;;;3.20;1.00;;;19.10;99.90;;;;;;1035520;28;20060;-67
2022/05/29 01:20:37;;;;;;;1.60;0.90;;;19.10;99.90;;;;;;1039391;28;20045;-67
2022/05/29 01:21:45;;;;;;;2.92;1.00;;;19.20;99.90;;;;;;1039768;28;20104;-67
2022/05/29 01:22:36;;;;;;;1.38;0.95;;;19.20;99.90;;;;;;1035586;28;20750;-67
2022/05/29 01:23:27;;;;;;;2.58;1.05;;;19.20;99.90;;;;;;1036770;28;20076;-67
2022/05/29 01:24:26;;;;;;;3.60;1.38;;;19.20;99.90;;;;;;1039970;28;20020;-67
2022/05/29 01:25:31;;;;;;;2.58;0.93;;;19.20;99.90;;;;;;1040417;28;20014;-67
2022/05/29 01:26:26;;;;;;;3.55;1.17;;;19.20;99.90;;;;;;1040164;28;20475;-67
2022/05/29 01:27:34;;;;;;;2.45;1.15;;;19.20;99.90;;;;;;1042873;28;20487;-67
2022/05/29 01:28:29;;;;;;;2.15;1.05;;;19.20;99.90;;;;;;1044245;28;20546;-67
2022/05/29 01:29:03;;;;;;;2.25;1.02;;;19.20;99.90;;;;;;1044070;28;20013;-70
2022/05/29 01:29:55;;;;;;;2.25;0.93;;;19.20;99.90;;;;;;1044332;28;20146;-67
2022/05/29 01:30:29;;;;;;;3.45;1.15;;;19.20;99.90;;;;;;1044275;28;20587;-67
2022/05/29 01:31:06;;;;;;;1.55;1.13;;;19.10;99.90;;;;;;1044073;28;20013;-67
2022/05/29 01:32:05;;;;;;;2.75;1.08;;;19.10;99.90;;;;;;1044492;28;20025;-67
2022/05/29 01:32:47;;;;;;;4.43;1.17;;;19.10;99.90;;;;;;1040790;28;20410;-67
2022/05/29 01:33:34;;;;;;;2.38;0.93;;;19.10;99.90;;;;;;1039787;28;20110;-67
2022/05/29 01:34:28;;;;;;;3.05;1.38;;;19.10;99.90;;;;;;1039594;28;20092;-67
2022/05/29 01:35:08;;;;;;;1.10;0.73;;;19.10;99.90;;;;;;1039813;28;20021;-67
2022/05/29 01:35:48;;;;;;;4.47;1.27;;;19.10;99.90;;;;;;1040045;28;20366;-67
2022/05/29 01:36:33;;;;;;;3.03;1.05;;;19.10;99.90;;;;;;1039852;28;20485;-67
2022/05/29 01:37:09;;;;;;;2.15;0.98;;;19.10;99.90;;;;;;1042133;28;20112;-67
2022/05/29 01:37:51;;;;;;;1.67;0.90;;;19.10;99.90;;;;;;1044206;28;20021;-67
2022/05/29 01:38:33;;;;;;;3.00;1.10;;;19.10;99.90;;;;;;1044237;28;20013;-67
2022/05/29 01:39:10;;;;;;;2.58;1.30;;;19.10;99.90;;;;;;1044370;28;20031;-67
2022/05/29 01:39:50;;;;;;;2.97;1.00;;;19.10;99.90;;;;;;1044179;28;20608;-68
2022/05/29 01:40:35;;;;;;;2.13;1.10;;;19.10;99.90;;;;;;1043802;28;20021;-68
2022/05/29 01:41:21;;;;;;;1.98;1.10;;;19.10;99.90;;;;;;1040186;28;20536;-68
2022/05/29 01:41:58;;;;;;;2.30;1.17;;;19.10;99.90;;;;;;1040008;28;20067;-68
2022/05/29 01:42:45;;;;;;;1.67;1.00;;;19.10;99.90;;;;;;1043844;28;20063;-68
2022/05/29 01:43:22;;;;;;;1.60;1.05;;;19.10;99.90;;;;;;1044305;28;20709;-68
2022/05/29 01:44:32;;;;;;;2.05;1.00;;;19.10;99.90;;;;;;1043304;28;20059;-67
2022/05/29 01:45:17;;;;;;;3.13;1.10;;;19.10;99.90;;;;;;1035401;28;20426;-68
2022/05/29 01:45:59;;;;;;;2.17;1.13;;;19.10;99.90;;;;;;1038011;28;20025;-68
2022/05/29 01:46:31;;;;;;;2.05;0.90;;;19.10;99.90;;;;;;1039010;28;20109;-68
2022/05/29 01:47:18;;;;;;;2.78;1.40;;;19.10;99.90;;;;;;1038804;28;20087;-68
2022/05/29 01:48:10;;;;;;;2.28;0.95;;;19.10;99.90;;;;;;1031572;28;20030;-68
2022/05/29 01:49:03;;;;;;;2.25;1.10;;;19.10;99.90;;;;;;1032239;28;20026;-68
2022/05/29 01:49:39;;;;;;;1.35;1.02;;;19.10;99.90;;;;;;1032656;28;20080;-68
2022/05/29 01:50:22;;;;;;;2.70;1.15;;;19.10;99.90;;;;;;1034684;28;20092;-68
2022/05/29 01:51:11;;;;;;;1.60;0.90;;;19.10;99.90;;;;;;1037517;28;20026;-68
2022/05/29 01:52:01;;;;;;;3.42;1.50;;;19.10;99.90;;;;;;1039418;28;20019;-68
2022/05/29 01:52:37;;;;;;;3.67;1.40;;;19.10;99.90;;;;;;1042056;28;20028;-68
2022/05/29 01:53:20;;;;;;;2.33;1.15;;;19.00;99.90;;;;;;1042883;28;20473;-68
2022/05/29 01:54:03;;;;;;;2.47;1.02;;;19.00;99.90;;;;;;1043123;28;20364;-68
2022/05/29 01:54:57;;;;;;;4.05;1.25;;;19.00;99.90;;;;;;1039081;28;20112;-68
2022/05/29 01:55:34;;;;;;;3.58;1.15;;;18.90;99.90;;;;;;1039642;28;20021;-68
2022/05/29 01:56:14;;;;;;;3.67;1.27;;;18.90;99.90;;;;;;1043055;28;20028;-68
2022/05/29 01:56:49;;;;;;;2.75;1.10;;;18.90;99.90;;;;;;1043595;28;20111;-68
2022/05/29 01:57:32;;;;;;;1.63;1.00;;;18.90;99.90;;;;;;1043334;28;20029;-69
2022/05/29 01:58:09;;;;;;;2.80;1.15;;;18.90;99.90;;;;;;1043425;28;20115;-68
2022/05/29 01:58:44;;;;;;;4.68;1.60;;;18.90;99.90;;;;;;1043420;28;20017;-69
2022/05/29 01:59:25;;;;;;;2.20;1.05;;;18.90;99.90;;;;;;1042706;28;20018;-69
2022/05/29 02:00:06;;;;;;;1.08;0.85;;;18.90;99.90;;;;;;1039469;28;20477;-69
2022/05/29 02:00:37;;;;;;;3.35;1.25;;;18.90;99.90;;;;;;1039511;28;20010;-69
2022/05/29 02:01:10;;;;;;;2.83;1.03;;;18.90;99.90;;;;;;1042650;28;20153;-69
2022/05/29 02:01:47;;;;;;;1.63;1.00;;;18.90;99.90;;;;;;1043446;28;20130;-69
2022/05/29 02:02:24;;;;;;;1.67;0.88;;;18.90;99.90;;;;;;1043537;28;20096;-69
2022/05/29 02:03:08;;;;;;;2.80;1.00;;;18.90;99.90;;;;;;1043018;28;20200;-69
2022/05/29 02:03:48;;;;;;;5.03;1.35;;;19.00;99.90;;;;;;1039082;28;20369;-69
2022/05/29 02:04:23;;;;;;;3.10;1.25;;;19.00;99.90;;;;;;1040848;28;20053;-67
2022/05/29 02:05:00;;;;;;;4.75;1.20;;;19.00;99.90;;;;;;1043400;28;20804;-68
2022/05/29 02:05:38;;;;;;;2.17;1.08;;;19.00;99.90;;;;;;1043387;28;20020;-68
2022/05/29 02:06:16;;;;;;;2.30;1.17;;;19.00;99.90;;;;;;1043496;28;20024;-68
2022/05/29 02:07:49;;;;;;;2.97;1.30;;;19.00;99.90;;;;;;1042952;28;20443;-67
2022/05/29 02:08:52;;;;;;;2.70;1.20;;;19.00;99.90;;;;;;1043253;28;20098;-67
2022/05/29 02:09:29;;;;;;;3.88;1.13;;;19.00;99.90;;;;;;1038675;28;20017;-67
2022/05/29 02:10:16;;;;;;;2.90;1.30;;;18.90;99.90;;;;;;1041021;28;20025;-68
2022/05/29 02:11:06;;;;;;;3.85;1.73;;;18.90;99.90;;;;;;1043377;28;20421;-67
2022/05/29 02:11:37;;;;;;;3.17;1.52;;;18.90;99.90;;;;;;1039503;28;20017;-67
2022/05/29 02:12:12;;;;;;;2.33;0.83;;;18.90;99.90;;;;;;1038639;28;20109;-67
2022/05/29 02:13:24;;;;;;;1.50;1.05;;;18.80;99.90;;;;;;1039702;28;20057;-68
2022/05/29 02:14:01;;;;;;;4.05;1.50;;;18.90;99.90;;;;;;1042616;28;20123;-67
2022/05/29 02:14:38;;;;;;;4.80;1.45;;;18.90;99.90;;;;;;1043582;28;20125;-68
2022/05/29 02:15:13;;;;;;;1.92;1.10;;;18.80;99.90;;;;;;1043266;28;20025;-68
2022/05/29 02:16:20;;;;;;;3.70;1.17;;;18.80;99.90;;;;;;1043657;28;20426;-67
2022/05/29 02:16:56;;;;;;;3.80;1.50;;;18.80;99.90;;;;;;1046948;28;20142;-67
2022/05/29 02:17:34;;;;;;;2.20;1.27;;;18.70;99.90;;;;;;1046920;28;20021;-68
2022/05/29 02:18:16;;;;;;;2.58;1.08;;;18.70;99.90;;;;;;1041300;28;20028;-67
2022/05/29 02:18:56;;;;;;;2.42;1.20;;;18.70;99.90;;;;;;1039043;28;20160;-67
2022/05/29 02:19:35;;;;;;;2.72;1.20;;;18.70;99.90;;;;;;1038723;28;20041;-68
2022/05/29 02:20:23;;;;;;;3.33;1.00;;;18.70;99.90;;;;;;1039384;28;20163;-69
2022/05/29 02:21:01;;;;;;;2.28;1.00;;;18.70;99.90;;;;;;1038914;28;20017;-67
2022/05/29 02:21:41;;;;;;;2.75;1.30;;;18.70;99.90;;;;;;1042125;28;20021;-69
2022/05/29 02:22:18;;;;;;;3.55;1.42;;;18.70;99.90;;;;;;1042933;28;20052;-68
2022/05/29 02:22:53;;;;;;;1.90;1.10;;;18.70;99.90;;;;;;1043384;28;20384;-68
2022/05/29 02:23:30;;;;;;;2.20;1.30;;;18.70;99.90;;;;;;1043389;28;20035;-69
2022/05/29 02:24:06;;;;;;;1.83;1.15;;;18.80;99.90;;;;;;1043379;28;20017;-69
2022/05/29 02:24:41;;;;;;;1.58;0.90;;;18.70;99.90;;;;;;1042867;28;20013;-69
2022/05/29 02:25:17;;;;;;;2.92;1.33;;;18.70;99.90;;;;;;1043344;28;20059;-69
2022/05/29 02:25:49;;;;;;;3.55;1.20;;;18.70;99.90;;;;;;1043000;28;20480;-69
2022/05/29 02:26:29;;;;;;;3.70;1.40;;;18.70;99.90;;;;;;1040048;28;20108;-69
2022/05/29 02:27:29;;;;;;;2.50;1.13;;;18.70;99.90;;;;;;1043372;28;20562;-69
2022/05/29 02:28:08;;;;;;;2.30;1.20;;;18.70;99.90;;;;;;1043091;28;20028;-69
2022/05/29 02:28:43;;;;;;;2.10;1.10;;;18.70;99.90;;;;;;1043379;28;20024;-69
2022/05/29 02:29:14;;;;;;;3.00;1.30;;;18.70;99.90;;;;;;1043603;28;20013;-69
2022/05/29 02:29:45;;;;;;;4.50;1.45;;;18.70;99.90;;;;;;1043215;28;20039;-69
2022/05/29 02:30:16;;;;;;;3.00;1.27;;;18.70;99.90;;;;;;1043434;28;20131;-69
2022/05/29 02:31:19;;;;;;;4.00;1.55;;;18.70;99.90;;;;;;1043126;28;20575;-69
2022/05/29 02:32:10;;;;;;;2.50;1.05;;;18.60;99.90;;;;;;1043111;28;20017;-69
2022/05/29 02:33:09;;;;;;;2.67;1.15;;;18.60;99.90;;;;;;1043399;28;20028;-69
2022/05/29 02:34:11;;;;;;;2.83;1.38;;;18.60;99.90;;;;;;1040808;28;20059;-69
2022/05/29 02:35:08;;;;;;;3.53;1.67;;;18.60;99.90;;;;;;1043609;28;20024;-68
2022/05/29 02:35:54;;;;;;;3.35;1.40;;;18.50;99.90;;;;;;1039286;28;20025;-69
2022/05/29 02:36:37;;;;;;;3.10;1.45;;;18.50;99.90;;;;;;1038986;28;20044;-67
2022/05/29 02:37:13;;;;;;;3.25;1.25;;;18.50;99.90;;;;;;1039158;28;20033;-70
2022/05/29 02:38:07;;;;;;;2.95;1.17;;;18.50;99.90;;;;;;1039318;28;20033;-70
2022/05/29 02:38:59;;;;;;;1.75;1.08;;;18.50;99.90;;;;;;1043123;28;20031;-69
2022/05/29 02:40:05;;;;;;;1.48;1.02;;;18.50;99.90;;;;;;1043322;28;20082;-69
2022/05/29 02:41:08;;;;;;;3.20;1.38;;;18.60;99.90;;;;;;1039399;28;20120;-68
2022/05/29 02:41:52;;;;;;;4.03;1.52;;;18.60;99.90;;;;;;1038914;28;20422;-69
2022/05/29 02:42:44;;;;;;;3.53;1.20;;;18.60;99.90;;;;;;1042043;28;20021;-69
2022/05/29 02:43:40;;;;;;;3.75;1.30;;;18.70;99.90;;;;;;1043424;28;20103;-67
2022/05/29 02:44:50;;;;;;;3.05;1.67;;;18.70;99.90;;;;;;1042226;28;20023;-67
2022/05/29 02:45:36;;;;;;;3.60;1.15;;;18.70;99.90;;;;;;1039183;28;20024;-69
2022/05/29 02:46:17;;;;;;;3.03;1.20;;;18.70;99.90;;;;;;1039052;28;20025;-69
2022/05/29 02:46:57;;;;;;;2.08;0.95;;;18.70;99.90;;;;;;1038710;28;20025;-69
2022/05/29 02:47:37;;;;;;;6.05;1.38;;;18.70;99.90;;;;;;1041387;28;20045;-69
2022/05/29 02:48:32;;;;;;;2.90;1.13;;;18.70;99.90;;;;;;1042774;28;20071;-69
2022/05/29 02:49:22;;;;;;;2.70;1.42;;;18.60;99.90;;;;;;1042535;28;20206;-67
2022/05/29 02:50:06;;;;;;;2.33;1.10;;;18.60;99.90;;;;;;1042889;28;20504;-69
2022/05/29 02:50:43;;;;;;;2.70;1.40;;;18.60;99.90;;;;;;1043272;28;20601;-67
2022/05/29 02:51:32;;;;;;;2.33;1.10;;;18.60;99.90;;;;;;1043407;28;20084;-69
2022/05/29 02:52:08;;;;;;;2.85;1.20;;;18.60;99.90;;;;;;1043003;28;20029;-67
2022/05/29 02:52:39;;;;;;;3.53;1.42;;;18.50;99.90;;;;;;1043252;28;20005;-69
2022/05/29 02:53:12;;;;;;;1.97;1.10;;;18.50;99.90;;;;;;1043317;28;20047;-67
2022/05/29 02:53:45;;;;;;;2.95;1.48;;;18.50;99.90;;;;;;1043337;28;20005;-69
2022/05/29 02:54:25;;;;;;;2.47;1.23;;;18.50;99.90;;;;;;1043237;28;20073;-67
2022/05/29 02:54:57;;;;;;;3.50;1.55;;;18.50;99.90;;;;;;1043275;28;20013;-67
2022/05/29 02:55:28;;;;;;;2.88;1.60;;;18.50;99.90;;;;;;1042956;28;20387;-68
2022/05/29 02:56:03;;;;;;;2.47;1.20;;;18.50;99.90;;;;;;1041946;28;20353;-67
2022/05/29 02:56:33;;;;;;;3.03;1.10;;;18.40;99.90;;;;;;1043333;28;20345;-68
2022/05/29 02:57:04;;;;;;;3.10;1.50;;;18.40;99.90;;;;;;1042764;28;20555;-67
2022/05/29 02:57:34;;;;;;;2.57;1.30;;;18.40;99.90;;;;;;1042660;28;20048;-67
2022/05/29 02:58:10;;;;;;;2.70;1.23;;;18.40;99.90;;;;;;1042722;28;20016;-68
2022/05/29 02:58:43;;;;;;;3.25;1.60;;;18.40;99.90;;;;;;1043051;28;20016;-67
2022/05/29 02:59:13;;;;;;;3.42;1.30;;;18.40;99.90;;;;;;1043193;28;20594;-67
2022/05/29 02:59:52;;;;;;;2.43;1.17;;;18.40;99.90;;;;;;1043244;28;20464;-67
2022/05/29 03:00:23;;;;;;;2.47;1.27;;;18.40;99.90;;;;;;1043194;28;20108;-71
2022/05/29 03:01:10;;;;;;;2.67;1.10;;;18.40;99.90;;;;;;1043171;28;20552;-69
2022/05/29 03:02:09;;;;;;;1.67;1.15;;;18.40;99.90;;;;;;1042925;28;20013;-67
2022/05/29 03:02:57;;;;;;;3.78;1.40;;;18.40;99.90;;;;;;1042740;28;20080;-67
2022/05/29 03:03:42;;;;;;;3.74;1.58;;;18.40;99.90;;;;;;1036833;28;20143;-67
2022/05/29 03:04:34;;;;;;;2.10;1.20;;;18.40;99.90;;;;;;1039516;28;20006;-67
2022/05/29 03:05:22;;;;;;;3.50;1.55;;;18.40;99.90;;;;;;1039283;28;20024;-67
2022/05/29 03:06:18;;;;;;;2.25;0.90;;;18.40;99.90;;;;;;1042602;28;20021;-67
2022/05/29 03:07:00;;;;;;;2.35;1.02;;;18.40;99.90;;;;;;1042903;28;20021;-67
2022/05/29 03:07:41;;;;;;;1.95;1.20;;;18.40;99.90;;;;;;1043340;28;20020;-67
2022/05/29 03:08:28;;;;;;;3.03;1.40;;;18.40;99.90;;;;;;1039263;28;20025;-69
2022/05/29 03:09:27;;;;;;;3.08;1.33;;;18.40;99.90;;;;;;1038979;28;20108;-68
2022/05/29 03:10:25;;;;;;;2.53;1.23;;;18.40;99.90;;;;;;1040304;28;20018;-69
2022/05/29 03:11:10;;;;;;;2.17;1.00;;;18.40;99.90;;;;;;1042877;28;20450;-69
2022/05/29 03:11:46;;;;;;;2.78;1.40;;;18.40;99.90;;;;;;1042996;28;20009;-67
2022/05/29 03:12:22;;;;;;;2.17;1.13;;;18.40;99.90;;;;;;1043233;28;20021;-69
2022/05/29 03:13:08;;;;;;;4.10;1.63;;;18.40;99.90;;;;;;1042978;28;20032;-69
2022/05/29 03:13:57;;;;;;;2.80;1.33;;;18.40;99.90;;;;;;1043322;28;20716;-69
2022/05/29 03:14:38;;;;;;;3.17;1.25;;;18.40;99.90;;;;;;1043102;28;20009;-69
2022/05/29 03:15:27;;;;;;;2.28;1.10;;;18.40;99.90;;;;;;1043118;28;20031;-69
2022/05/29 03:16:15;;;;;;;3.95;1.20;;;18.40;99.90;;;;;;1042602;28;20297;-69
2022/05/29 03:17:16;;;;;;;2.97;1.40;;;18.40;99.90;;;;;;1038928;28;20045;-68
2022/05/29 03:18:00;;;;;;;2.63;1.52;;;18.40;99.90;;;;;;1039346;28;20572;-69
2022/05/29 03:19:00;;;;;;;3.30;1.30;;;18.40;99.90;;;;;;1041886;28;20104;-68
2022/05/29 03:20:15;;;;;;;2.20;1.73;;;18.40;99.90;;;;;;1042638;28;20021;-69
2022/05/29 03:21:21;;;;;;;3.30;1.35;;;18.40;99.90;;;;;;1038209;28;20151;-68
2022/05/29 03:21:57;;;;;;;;;;;18.40;99.90;;;;;;1043090;28;20550;-68
2022/05/29 03:22:37;;;;;;;1.60;0.90;;;18.40;99.90;;;;;;1043882;28;20315;-68
2022/05/29 03:23:21;;;;;;;1.95;0.93;;;18.40;99.90;;;;;;1042495;28;20128;-68
2022/05/29 03:24:25;;;;;;;2.63;1.05;;;18.40;99.90;;;;;;1042637;28;20704;-69
2022/05/29 03:24:58;;;;;;;2.05;1.08;;;18.40;99.90;;;;;;1042062;28;20112;-68
2022/05/29 03:25:35;;;;;;;3.33;1.55;;;18.40;99.90;;;;;;1042640;28;20024;-68
2022/05/29 03:26:12;;;;;;;2.90;1.40;;;18.40;99.90;;;;;;1042625;28;20056;-68
2022/05/29 03:27:03;;;;;;;2.28;1.00;;;18.40;99.90;;;;;;1040116;28;20100;-68